Dudignac, Argentina
Current Conditions -  °F | °C
As of 6:00 AM on Sunday 26 Oct 2014 (Local Time) from SAEZ Reporting Station
Clear Clear  
Wind Chill: 23°   Ceiling: Unl
Heat Index: 23°   Visibility: 6mi
Dew Point: 18°   Wind: 8mph
Humidity: 73%   Direction: 10°N
Pressure: 29.85"   Gusts: NA
Location:  35.66°S, 60.72°W
Report Text: SAEZ 260900Z 01007KT 340V040 CAVOK 23/18 Q1011
Loading
Personal Weather Stations






























Interactive Weather Map
Tropical Storm Tracking
New forecast layout! Learn more

10-Day Weather Forecast

Advertisements
Track Severe Weather on mobile